ΕΜΥ, Εθνική Μετεωρολογική Υπηρεσία - Δελτία Καιρού, Προγνώσεις

ΑΕΡΟΝΑΥΤΙΛΙΑ

GREEK AIRPORTS CODES

LGIO 220750Z VRB02KT CAVOK M02/M04 Q1032=

EUROPEAN AIRPORTS CODES